Time;durP1;ratioP1;P1;durP2;ratioP2;P2;SDS_P1;SDS_P2;PMS_P1;PMS_P2;Temp;Humidity;BMP_temperature;BMP_pressure;BME280_temperature;BME280_humidity;BME280_pressure;Samples;Min_cycle;Max_cycle;Signal;HPM_P1;HPM_P2
2021/08/05 00:01:57;;;;;;;13.53;8.13;;;17.70;99.90;;;;;;6246411;23;20182;-76
2021/08/05 00:04:23;;;;;;;13.10;8.10;;;17.60;99.90;;;;;;6246400;23;20183;-76
2021/08/05 00:06:50;;;;;;;11.80;8.30;;;17.60;99.90;;;;;;6245992;23;20175;-76
2021/08/05 00:09:17;;;;;;;12.43;8.20;;;17.60;99.90;;;;;;6246141;23;20196;-76
2021/08/05 00:11:44;;;;;;;11.37;8.40;;;17.70;99.90;;;;;;6246145;23;20176;-76
2021/08/05 00:14:12;;;;;;;11.67;8.07;;;17.70;99.90;;;;;;6246540;23;20190;-76
2021/08/05 00:16:39;;;;;;;11.33;8.10;;;17.70;99.90;;;;;;6245711;23;20186;-76
2021/08/05 00:19:06;;;;;;;10.73;7.70;;;17.70;99.90;;;;;;6245827;23;20697;-77
2021/08/05 00:21:33;;;;;;;12.07;7.97;;;17.70;99.90;;;;;;6245900;23;20657;-76
2021/08/05 00:23:59;;;;;;;13.70;8.70;;;17.70;99.90;;;;;;6245554;23;20182;-76
2021/08/05 00:26:26;;;;;;;10.67;7.70;;;17.70;99.90;;;;;;6245865;23;20175;-76
2021/08/05 00:28:53;;;;;;;10.97;7.57;;;17.80;99.90;;;;;;6245826;23;20218;-76
2021/08/05 00:31:21;;;;;;;12.00;8.47;;;17.80;99.90;;;;;;6246364;23;20175;-76
2021/08/05 00:33:48;;;;;;;12.80;8.17;;;17.80;99.90;;;;;;6246426;23;20176;-76
2021/08/05 00:36:15;;;;;;;13.03;7.37;;;17.80;99.90;;;;;;6245379;23;20186;-77
2021/08/05 00:38:42;;;;;;;9.97;7.47;;;17.80;99.90;;;;;;6244832;23;20211;-76
2021/08/05 00:41:09;;;;;;;12.10;7.77;;;17.90;99.90;;;;;;6245197;23;20179;-76
2021/08/05 00:43:35;;;;;;;11.17;7.50;;;17.90;99.90;;;;;;6246174;23;20175;-76
2021/08/05 00:46:03;;;;;;;11.50;8.20;;;17.80;99.90;;;;;;6246224;23;20180;-76
2021/08/05 00:48:31;;;;;;;11.93;8.13;;;17.90;99.90;;;;;;6245637;23;20217;-77
2021/08/05 00:50:59;;;;;;;11.53;7.63;;;18.00;99.90;;;;;;6245549;23;20182;-76
2021/08/05 00:53:26;;;;;;;10.83;7.80;;;18.10;99.90;;;;;;6245799;23;20184;-76
2021/08/05 00:55:53;;;;;;;9.63;7.23;;;18.00;99.90;;;;;;6245825;23;20630;-76
2021/08/05 00:58:20;;;;;;;14.30;8.53;;;18.00;99.90;;;;;;6245611;23;20204;-77
2021/08/05 01:00:51;;;;;;;11.40;7.80;;;18.00;99.90;;;;;;6245741;23;20179;-76
2021/08/05 01:03:24;;;;;;;12.73;7.17;;;18.00;99.90;;;;;;6245558;23;20183;-76
2021/08/05 01:06:01;;;;;;;10.83;7.03;;;17.90;99.90;;;;;;6245844;23;20234;-76
2021/08/05 01:08:30;;;;;;;13.47;8.50;;;17.80;99.90;;;;;;6245449;23;20211;-76
2021/08/05 01:11:07;;;;;;;11.63;7.77;;;17.90;99.90;;;;;;6245657;23;20175;-76
2021/08/05 01:13:38;;;;;;;11.87;7.73;;;17.90;99.90;;;;;;6245925;23;20185;-76
2021/08/05 01:16:11;;;;;;;10.90;7.63;;;17.90;99.90;;;;;;6245623;23;20649;-76
2021/08/05 01:18:39;;;;;;;11.27;7.53;;;17.90;99.90;;;;;;6244944;23;20195;-76
2021/08/05 01:21:14;;;;;;;12.57;7.30;;;17.90;99.90;;;;;;6245298;23;20180;-76
2021/08/05 01:23:44;;;;;;;10.97;7.63;;;17.90;99.90;;;;;;6245660;23;20587;-76
2021/08/05 01:26:14;;;;;;;10.87;7.87;;;17.90;99.90;;;;;;6245885;23;20182;-76
2021/08/05 01:28:45;;;;;;;10.57;7.23;;;17.90;99.90;;;;;;6245006;23;20662;-76
2021/08/05 01:31:12;;;;;;;11.43;8.20;;;17.90;99.90;;;;;;6244924;23;20477;-76
2021/08/05 01:33:40;;;;;;;11.23;7.37;;;18.00;99.90;;;;;;6245490;23;20185;-75
2021/08/05 01:36:07;;;;;;;10.47;7.23;;;18.10;99.90;;;;;;6245258;23;20186;-76
2021/08/05 01:38:35;;;;;;;11.17;7.53;;;18.20;99.90;;;;;;6245026;23;20203;-76
2021/08/05 01:41:04;;;;;;;10.87;7.47;;;18.10;99.90;;;;;;6245296;23;20182;-76
2021/08/05 01:43:33;;;;;;;11.80;7.53;;;18.10;99.90;;;;;;6245522;23;20180;-76
2021/08/05 01:46:01;;;;;;;12.50;7.67;;;18.10;99.90;;;;;;6244913;23;20180;-76
2021/08/05 01:48:31;;;;;;;11.77;7.87;;;18.10;99.90;;;;;;6244491;23;20233;-76
2021/08/05 01:50:58;;;;;;;11.60;8.10;;;18.00;99.90;;;;;;6244898;23;20635;-76
2021/08/05 01:53:26;;;;;;;12.47;8.30;;;18.00;99.90;;;;;;6246486;23;20175;-76
2021/08/05 01:55:53;;;;;;;12.47;8.20;;;17.90;99.90;;;;;;6246960;23;20191;-76
2021/08/05 01:58:21;;;;;;;11.47;7.97;;;17.80;99.90;;;;;;6247298;23;20199;-76
2021/08/05 02:00:48;;;;;;;11.23;7.40;;;17.70;99.90;;;;;;6246921;23;20175;-76
2021/08/05 02:03:17;;;;;;;14.17;8.73;;;17.80;99.90;;;;;;6247046;23;20186;-76
2021/08/05 02:05:50;;;;;;;13.17;8.27;;;17.80;99.90;;;;;;6247391;23;20179;-76
2021/08/05 02:08:22;;;;;;;13.20;7.97;;;17.70;99.90;;;;;;6246946;23;20535;-75
2021/08/05 02:10:51;;;;;;;13.53;8.20;;;17.70;99.90;;;;;;6247126;23;20626;-75
2021/08/05 02:13:23;;;;;;;10.27;7.10;;;17.70;99.90;;;;;;6247136;23;20172;-74
2021/08/05 02:15:54;;;;;;;11.40;7.77;;;17.70;99.90;;;;;;6247508;23;20175;-76
2021/08/05 02:18:26;;;;;;;11.37;7.63;;;17.60;99.90;;;;;;6246857;23;20200;-76
2021/08/05 02:20:53;;;;;;;12.27;8.27;;;17.70;99.90;;;;;;6246976;23;20653;-76
2021/08/05 02:23:20;;;;;;;11.83;7.53;;;17.70;99.90;;;;;;6246820;23;20176;-76
2021/08/05 02:25:50;;;;;;;11.30;8.00;;;17.70;99.90;;;;;;6247345;23;20176;-76
2021/08/05 02:28:17;;;;;;;11.13;7.70;;;17.70;99.90;;;;;;6246989;23;20203;-76
2021/08/05 02:30:45;;;;;;;11.50;7.57;;;17.60;99.90;;;;;;6247252;23;20175;-76
2021/08/05 02:33:13;;;;;;;13.60;8.97;;;17.70;99.90;;;;;;6246745;23;20662;-76
2021/08/05 02:35:45;;;;;;;14.90;8.37;;;17.70;99.90;;;;;;6247403;23;20183;-76
2021/08/05 02:38:12;;;;;;;12.67;8.40;;;17.70;99.90;;;;;;6246962;23;20511;-76
2021/08/05 02:40:41;;;;;;;13.17;8.13;;;17.80;99.90;;;;;;6247203;23;20186;-76
2021/08/05 02:43:10;;;;;;;12.40;8.37;;;17.90;99.90;;;;;;6247030;23;20202;-76
2021/08/05 02:45:38;;;;;;;13.53;8.20;;;17.90;99.90;;;;;;6247495;23;20198;-77
2021/08/05 02:48:08;;;;;;;13.70;8.60;;;17.80;99.90;;;;;;6246660;23;20214;-76
2021/08/05 02:50:36;;;;;;;11.57;7.73;;;17.80;99.90;;;;;;6247133;23;20176;-76
2021/08/05 02:53:06;;;;;;;13.93;8.13;;;17.70;99.90;;;;;;6246382;23;20180;-76
2021/08/05 02:55:33;;;;;;;12.40;7.87;;;17.70;99.90;;;;;;6246331;23;20188;-76
2021/08/05 02:58:01;;;;;;;15.37;8.47;;;17.80;99.90;;;;;;6246202;23;20200;-76
2021/08/05 03:00:28;;;;;;;12.27;7.70;;;17.90;99.90;;;;;;6247288;23;20183;-76
2021/08/05 03:02:55;;;;;;;14.23;8.50;;;18.00;99.90;;;;;;6246972;23;20176;-75
2021/08/05 03:05:22;;;;;;;13.60;8.70;;;17.90;99.90;;;;;;6246508;23;20182;-76
2021/08/05 03:07:48;;;;;;;12.30;8.40;;;17.90;99.90;;;;;;6247045;23;20175;-76
2021/08/05 03:10:17;;;;;;;12.47;7.97;;;17.80;99.90;;;;;;6246939;23;20182;-76
2021/08/05 03:12:45;;;;;;;14.27;8.37;;;17.70;99.90;;;;;;6246399;23;20188;-76
2021/08/05 03:15:12;;;;;;;12.07;7.73;;;17.60;99.90;;;;;;6246704;23;20179;-76
2021/08/05 03:17:40;;;;;;;11.87;7.50;;;17.60;99.90;;;;;;6246576;23;20258;-76
2021/08/05 03:20:08;;;;;;;12.30;7.60;;;17.60;99.90;;;;;;6246921;23;20186;-75
2021/08/05 03:22:36;;;;;;;11.80;7.30;;;17.70;99.90;;;;;;6246780;23;20176;-76
2021/08/05 03:25:03;;;;;;;9.87;7.33;;;17.80;99.90;;;;;;6246504;23;20186;-76
2021/08/05 03:27:31;;;;;;;13.07;7.47;;;17.80;99.90;;;;;;6246802;23;20175;-76
2021/08/05 03:29:58;;;;;;;12.00;8.17;;;17.90;99.90;;;;;;6246216;23;20207;-76
2021/08/05 03:32:25;;;;;;;15.73;7.90;;;17.80;99.90;;;;;;6246687;23;20507;-76
2021/08/05 03:34:52;;;;;;;11.00;7.90;;;17.70;99.90;;;;;;6246579;23;20179;-77
2021/08/05 03:37:19;;;;;;;12.57;7.93;;;17.60;99.90;;;;;;6246151;23;20180;-76
2021/08/05 03:39:46;;;;;;;13.30;7.20;;;17.70;99.90;;;;;;6246495;23;20195;-75
2021/08/05 03:42:12;;;;;;;10.50;7.77;;;17.80;99.90;;;;;;6246571;23;20182;-76
2021/08/05 03:44:41;;;;;;;16.03;8.50;;;17.80;99.90;;;;;;6246691;23;20186;-76
2021/08/05 03:47:07;;;;;;;10.10;7.43;;;17.80;99.90;;;;;;6246285;23;20634;-77
2021/08/05 03:49:34;;;;;;;10.80;7.63;;;17.70;99.90;;;;;;6246335;23;20222;-76
2021/08/05 03:52:01;;;;;;;12.33;7.10;;;17.60;99.90;;;;;;6246048;23;20186;-76
2021/08/05 03:54:28;;;;;;;11.50;7.83;;;17.50;99.90;;;;;;6246093;23;20175;-76
2021/08/05 03:56:54;;;;;;;11.10;7.83;;;17.50;99.90;;;;;;6245883;23;20187;-76
2021/08/05 03:59:21;;;;;;;11.27;7.50;;;17.60;99.90;;;;;;6245904;23;20671;-76
2021/08/05 04:01:49;;;;;;;11.57;7.73;;;17.60;99.90;;;;;;6246146;23;20650;-76
2021/08/05 04:04:16;;;;;;;12.40;7.37;;;17.60;99.90;;;;;;6246190;23;20176;-76
2021/08/05 04:06:43;;;;;;;10.60;7.07;;;17.60;99.90;;;;;;6246195;23;20506;-77
2021/08/05 04:09:10;;;;;;;11.43;6.97;;;17.60;99.90;;;;;;6245931;23;20234;-76
2021/08/05 04:11:36;;;;;;;11.13;7.57;;;17.60;99.90;;;;;;6246269;23;20285;-76
2021/08/05 04:14:03;;;;;;;13.87;7.33;;;17.60;99.90;;;;;;6246264;23;20226;-76
2021/08/05 04:16:30;;;;;;;11.70;7.33;;;17.50;99.90;;;;;;6245884;23;20176;-76
2021/08/05 04:18:58;;;;;;;11.47;7.87;;;17.50;99.90;;;;;;6246155;23;20601;-77
2021/08/05 04:21:25;;;;;;;13.97;7.77;;;17.50;99.90;;;;;;6245580;23;20184;-76
2021/08/05 04:23:52;;;;;;;10.63;7.63;;;17.60;99.90;;;;;;6245729;23;20506;-76
2021/08/05 04:26:18;;;;;;;11.90;8.50;;;17.60;99.90;;;;;;6245863;23;20197;-77
2021/08/05 04:28:45;;;;;;;11.43;7.87;;;17.60;99.90;;;;;;6245073;23;20211;-76
2021/08/05 04:31:12;;;;;;;11.67;7.50;;;17.70;99.90;;;;;;6245076;23;20180;-75
2021/08/05 04:33:39;;;;;;;13.17;8.40;;;17.70;99.90;;;;;;6245861;23;20190;-76
2021/08/05 04:36:07;;;;;;;13.23;7.90;;;17.80;99.90;;;;;;6244914;23;20482;-76
2021/08/05 04:38:34;;;;;;;11.03;7.47;;;17.80;99.90;;;;;;6245249;23;20195;-76
2021/08/05 04:41:06;;;;;;;11.97;7.97;;;17.90;99.90;;;;;;6245780;23;20176;-75
2021/08/05 04:43:33;;;;;;;14.70;9.17;;;17.90;99.90;;;;;;6245124;23;20507;-75
2021/08/05 04:46:01;;;;;;;15.43;8.30;;;17.80;99.90;;;;;;6245263;23;20210;-76
2021/08/05 04:48:28;;;;;;;12.20;8.07;;;17.70;99.90;;;;;;6245024;23;20552;-75
2021/08/05 04:50:55;;;;;;;12.30;8.50;;;17.70;99.90;;;;;;6245905;23;20203;-76
2021/08/05 04:53:23;;;;;;;12.67;8.47;;;17.90;99.90;;;;;;6244899;23;20211;-77
2021/08/05 04:55:49;;;;;;;13.23;8.20;;;17.90;99.90;;;;;;6245984;23;20183;-76
2021/08/05 04:58:16;;;;;;;13.47;8.17;;;18.00;99.90;;;;;;6245927;23;20195;-76
2021/08/05 05:00:44;;;;;;;18.07;8.83;;;18.10;99.90;;;;;;6245796;23;20508;-76
2021/08/05 05:03:11;;;;;;;14.17;8.87;;;18.10;99.90;;;;;;6245853;23;20186;-76
2021/08/05 05:05:39;;;;;;;13.87;9.00;;;18.10;99.90;;;;;;6246019;23;20176;-76
2021/08/05 05:08:12;;;;;;;13.33;8.70;;;18.10;99.90;;;;;;6244045;23;20197;-76
2021/08/05 05:10:40;;;;;;;13.50;8.50;;;18.10;99.90;;;;;;6245851;23;20218;-76
2021/08/05 05:13:07;;;;;;;11.90;7.93;;;18.10;99.90;;;;;;6245383;23;20186;-76
2021/08/05 05:15:34;;;;;;;12.60;8.50;;;18.20;99.90;;;;;;6245079;23;20176;-76
2021/08/05 05:18:01;;;;;;;12.80;8.70;;;18.20;99.90;;;;;;6244675;23;20206;-75
2021/08/05 05:20:28;;;;;;;13.83;8.70;;;18.10;99.90;;;;;;6245626;23;20180;-76
2021/08/05 05:22:55;;;;;;;13.33;8.00;;;18.20;99.90;;;;;;6245564;23;20184;-75
2021/08/05 05:25:22;;;;;;;12.07;7.90;;;18.20;99.90;;;;;;6245125;23;20190;-76
2021/08/05 05:27:50;;;;;;;14.40;9.53;;;18.20;99.90;;;;;;6244019;23;20639;-76
2021/08/05 05:30:18;;;;;;;13.97;8.70;;;18.20;99.90;;;;;;6244709;23;20211;-75
2021/08/05 05:32:46;;;;;;;14.07;8.93;;;18.20;99.90;;;;;;6245506;23;20180;-75
2021/08/05 05:35:15;;;;;;;14.00;8.63;;;18.20;99.90;;;;;;6244578;23;20198;-75
2021/08/05 05:37:43;;;;;;;14.70;9.13;;;18.50;99.90;;;;;;6244149;23;20186;-75
2021/08/05 05:40:11;;;;;;;14.40;7.80;;;19.00;99.90;;;;;;6245100;23;20198;-76
2021/08/05 05:42:38;;;;;;;13.07;8.30;;;19.70;99.90;;;;;;6245378;23;20180;-75
2021/08/05 05:45:08;;;;;;;12.10;8.10;;;20.20;99.90;;;;;;6244562;23;20189;-77
2021/08/05 05:47:35;;;;;;;11.70;7.65;;;20.50;99.90;;;;;;6244916;23;20180;-77
2021/08/05 05:50:02;;;;;;;9.98;7.18;;;20.90;99.90;;;;;;6245750;23;20535;-77
2021/08/05 05:52:29;;;;;;;12.70;7.65;;;21.50;99.90;;;;;;6246096;23;20184;-76
2021/08/05 05:54:56;;;;;;;12.93;8.30;;;21.80;99.90;;;;;;6245174;23;20175;-76
2021/08/05 05:57:23;;;;;;;10.32;7.20;;;22.00;99.90;;;;;;6245368;23;20176;-76
2021/08/05 05:59:50;;;;;;;10.43;7.00;;;22.10;99.90;;;;;;6245090;23;20200;-75
2021/08/05 06:02:18;;;;;;;13.30;8.20;;;22.40;99.90;;;;;;6245829;23;20187;-75
2021/08/05 06:04:47;;;;;;;9.48;7.18;;;23.00;99.90;;;;;;6244921;23;20186;-76
2021/08/05 06:07:15;;;;;;;11.30;7.10;;;23.70;99.90;;;;;;6244916;23;20179;-77
2021/08/05 06:09:41;;;;;;;10.38;6.85;;;24.10;99.90;;;;;;6244715;23;20219;-75
2021/08/05 06:12:08;;;;;;;9.25;6.70;;;24.60;99.90;;;;;;6244802;23;20630;-76
2021/08/05 06:14:35;;;;;;;13.15;8.23;;;24.90;99.90;;;;;;6244714;23;20627;-77
2021/08/05 06:17:02;;;;;;;11.27;8.05;;;25.00;99.90;;;;;;6245009;23;20175;-77
2021/08/05 06:19:30;;;;;;;12.00;8.32;;;25.00;99.90;;;;;;6244769;23;20202;-77
2021/08/05 06:21:58;;;;;;;12.75;8.23;;;24.90;99.90;;;;;;6245200;23;20180;-77
2021/08/05 06:24:25;;;;;;;10.98;8.02;;;25.40;99.90;;;;;;6244543;23;20198;-77
2021/08/05 06:26:52;;;;;;;11.80;8.43;;;25.40;99.90;;;;;;6245271;23;20182;-77
2021/08/05 06:29:20;;;;;;;12.82;8.55;;;25.70;99.90;;;;;;6244652;23;20218;-78
2021/08/05 06:31:46;;;;;;;11.30;8.10;;;25.80;99.90;;;;;;6245019;23;20179;-78
2021/08/05 06:34:13;;;;;;;12.10;8.75;;;26.30;99.90;;;;;;6245421;23;20190;-79
2021/08/05 06:36:42;;;;;;;12.10;7.85;;;26.80;99.90;;;;;;6245389;23;20258;-78
2021/08/05 06:39:08;;;;;;;11.77;8.20;;;27.30;99.90;;;;;;6244888;23;20524;-77
2021/08/05 06:41:35;;;;;;;11.60;8.77;;;27.80;99.90;;;;;;6246867;23;20495;-77
2021/08/05 06:44:02;;;;;;;13.00;8.75;;;27.60;99.90;;;;;;6247501;23;20198;-78
2021/08/05 06:46:29;;;;;;;12.35;8.98;;;27.20;99.90;;;;;;6247547;23;20183;-79
2021/08/05 06:48:55;;;;;;;12.40;8.07;;;26.90;99.90;;;;;;6246388;23;20203;-77
2021/08/05 06:51:22;;;;;;;11.48;8.40;;;26.70;99.90;;;;;;6246722;23;20488;-78
2021/08/05 06:53:52;;;;;;;13.98;9.18;;;26.50;99.90;;;;;;6247003;23;20179;-78
2021/08/05 06:56:18;;;;;;;11.73;8.65;;;26.60;99.90;;;;;;6246349;23;20639;-77
2021/08/05 06:58:45;;;;;;;12.70;9.63;;;26.60;99.90;;;;;;6246790;23;20206;-77
2021/08/05 07:01:12;;;;;;;13.82;9.48;;;26.30;99.90;;;;;;6246981;23;20176;-77
2021/08/05 07:03:39;;;;;;;13.18;9.57;;;25.30;99.90;;;;;;6247263;23;20186;-77
2021/08/05 07:06:06;;;;;;;13.88;9.55;;;24.20;99.90;;;;;;6246778;23;20176;-77
2021/08/05 07:08:34;;;;;;;15.80;9.98;;;23.90;99.90;;;;;;6246833;23;20203;-79
2021/08/05 07:11:02;;;;;;;15.18;10.35;;;23.40;99.90;;;;;;6246834;23;20209;-78
2021/08/05 07:13:29;;;;;;;16.08;10.02;;;23.40;99.90;;;;;;6246879;23;20661;-77
2021/08/05 07:15:55;;;;;;;13.13;9.65;;;23.40;99.90;;;;;;6246942;23;20186;-78
2021/08/05 07:18:22;;;;;;;15.80;10.25;;;23.30;99.90;;;;;;6246888;23;20202;-77
2021/08/05 07:20:49;;;;;;;14.40;10.07;;;23.50;99.90;;;;;;6246914;23;20646;-78
2021/08/05 07:23:16;;;;;;;16.67;10.55;;;23.40;99.90;;;;;;6246720;23;20186;-77
2021/08/05 07:25:44;;;;;;;13.95;8.82;;;23.70;99.90;;;;;;6248318;23;20175;-77
2021/08/05 07:28:12;;;;;;;14.60;9.93;;;25.00;99.90;;;;;;6247470;23;20202;-78
2021/08/05 07:30:39;;;;;;;17.52;9.52;;;26.50;99.90;;;;;;6247329;23;20211;-77
2021/08/05 07:33:06;;;;;;;11.95;8.55;;;27.50;99.90;;;;;;6247687;23;20179;-77
2021/08/05 07:35:32;;;;;;;14.32;9.13;;;28.20;99.90;;;;;;6247005;23;20262;-78
2021/08/05 07:38:00;;;;;;;11.60;8.40;;;28.80;99.90;;;;;;6247253;23;20175;-78
2021/08/05 07:40:27;;;;;;;11.13;8.02;;;28.90;99.90;;;;;;6246900;23;20211;-78
2021/08/05 07:42:54;;;;;;;11.75;8.23;;;28.70;99.90;;;;;;6246192;23;20631;-77
2021/08/05 07:45:22;;;;;;;11.13;7.45;;;28.90;99.90;;;;;;6246525;23;20180;-78
2021/08/05 07:47:49;;;;;;;10.98;7.75;;;28.90;99.90;;;;;;6246959;23;20180;-77
2021/08/05 07:50:16;;;;;;;11.77;7.80;;;28.90;99.90;;;;;;6246044;23;20218;-78
2021/08/05 07:52:43;;;;;;;12.27;8.60;;;29.00;99.90;;;;;;6247797;23;20175;-79
2021/08/05 07:55:11;;;;;;;10.65;8.30;;;29.50;99.90;;;;;;6245841;23;20194;-77
2021/08/05 07:57:38;;;;;;;12.73;8.63;;;29.90;99.80;;;;;;6246581;23;20187;-78
2021/08/05 08:00:07;;;;;;;11.20;8.40;;;30.30;99.00;;;;;;6246342;23;20206;-77
2021/08/05 08:02:35;;;;;;;11.15;7.93;;;30.60;97.70;;;;;;6245973;23;20274;-78
2021/08/05 08:05:02;;;;;;;12.10;7.85;;;30.50;98.30;;;;;;6246085;23;20186;-78
2021/08/05 08:07:30;;;;;;;9.45;5.95;;;30.40;99.00;;;;;;6246263;23;20182;-77
2021/08/05 08:09:56;;;;;;;7.38;5.53;;;30.40;97.60;;;;;;6246245;23;20207;-78
2021/08/05 08:12:23;;;;;;;6.63;4.80;;;30.50;97.10;;;;;;6246140;23;20176;-78
2021/08/05 08:14:50;;;;;;;7.55;3.83;;;30.40;97.60;;;;;;6246355;23;20176;-78
2021/08/05 08:17:17;;;;;;;4.55;2.90;;;30.40;97.20;;;;;;6246406;23;20176;-78
2021/08/05 08:19:45;;;;;;;3.78;2.90;;;30.40;97.70;;;;;;6246168;23;20199;-78
2021/08/05 08:22:11;;;;;;;3.60;3.10;;;29.90;97.00;;;;;;6246275;23;20186;-79
2021/08/05 08:24:38;;;;;;;5.93;3.70;;;29.50;97.80;;;;;;6245834;23;20187;-79
2021/08/05 08:27:05;;;;;;;3.97;2.90;;;28.90;98.20;;;;;;6246164;23;20258;-78
2021/08/05 08:29:32;;;;;;;3.53;2.78;;;28.20;98.90;;;;;;6245729;23;20519;-80
2021/08/05 08:31:59;;;;;;;5.03;2.92;;;27.90;99.90;;;;;;6246183;23;20182;-80
2021/08/05 08:34:26;;;;;;;4.00;2.33;;;27.60;99.90;;;;;;6245671;23;20180;-79
2021/08/05 08:36:55;;;;;;;3.53;2.05;;;26.80;99.90;;;;;;6246299;23;20183;-79
2021/08/05 08:39:23;;;;;;;2.88;2.28;;;26.30;99.90;;;;;;6246243;23;20249;-78
2021/08/05 08:41:50;;;;;;;2.05;1.80;;;25.90;99.90;;;;;;6245966;23;20184;-79
2021/08/05 08:44:18;;;;;;;3.28;1.85;;;25.50;99.90;;;;;;6245653;23;20287;-77
2021/08/05 08:46:45;;;;;;;2.80;2.03;;;24.90;99.90;;;;;;6246274;23;20271;-79
2021/08/05 08:49:12;;;;;;;5.00;2.67;;;24.80;99.90;;;;;;6245735;23;20663;-78
2021/08/05 08:51:39;;;;;;;3.92;2.70;;;24.50;99.90;;;;;;6246201;23;20290;-79
2021/08/05 08:54:09;;;;;;;3.08;2.25;;;24.40;99.90;;;;;;6245695;23;20503;-78
2021/08/05 08:56:39;;;;;;;4.05;2.80;;;24.40;99.90;;;;;;6245995;23;20519;-78
2021/08/05 08:59:07;;;;;;;5.43;2.80;;;24.40;99.90;;;;;;6245598;23;20678;-79
2021/08/05 09:01:39;;;;;;;4.75;2.47;;;24.30;99.90;;;;;;6245476;23;20175;-79
2021/08/05 09:04:06;;;;;;;4.93;3.10;;;24.20;99.90;;;;;;6244857;23;20635;-79
2021/08/05 09:06:33;;;;;;;4.45;2.67;;;24.20;99.90;;;;;;6246032;23;20180;-79
2021/08/05 09:09:00;;;;;;;5.80;3.40;;;24.20;99.90;;;;;;6245844;23;20246;-79
2021/08/05 09:11:29;;;;;;;5.45;3.33;;;24.30;99.90;;;;;;6246160;23;20231;-80
2021/08/05 09:13:55;;;;;;;6.45;3.30;;;24.10;99.90;;;;;;6247010;23;20498;-80
2021/08/05 09:16:24;;;;;;;5.57;3.63;;;24.00;99.90;;;;;;6246069;23;20181;-78
2021/08/05 09:18:51;;;;;;;7.72;3.28;;;23.90;99.90;;;;;;6245652;23;20283;-80
2021/08/05 09:21:21;;;;;;;5.13;3.35;;;23.50;99.90;;;;;;6245478;23;20180;-80
2021/08/05 09:23:59;;;;;;;4.88;3.00;;;23.50;99.90;;;;;;6245384;23;20180;-79
2021/08/05 09:26:33;;;;;;;4.97;3.13;;;23.40;99.90;;;;;;6245429;23;20179;-79
2021/08/05 09:29:12;;;;;;;5.32;3.50;;;23.20;99.90;;;;;;6245443;23;20713;-80
2021/08/05 09:31:44;;;;;;;5.43;3.63;;;23.30;99.90;;;;;;6245551;23;20256;-76
2021/08/05 09:34:13;;;;;;;3.97;2.83;;;23.30;99.90;;;;;;6245509;23;20182;-79
2021/08/05 09:36:41;;;;;;;5.53;3.15;;;23.50;99.90;;;;;;6245942;23;20175;-80
2021/08/05 09:39:19;;;;;;;5.63;2.65;;;23.70;99.90;;;;;;6245094;23;20527;-79
2021/08/05 09:42:01;;;;;;;4.57;3.17;;;23.80;99.90;;;;;;6245603;23;20290;-81
2021/08/05 09:44:29;;;;;;;6.03;3.67;;;23.90;99.90;;;;;;6245348;23;20553;-80
2021/08/05 09:47:07;;;;;;;5.82;3.60;;;23.60;99.90;;;;;;6245410;23;20502;-79
2021/08/05 09:49:34;;;;;;;4.47;3.33;;;23.70;99.90;;;;;;6245564;23;20195;-79
2021/08/05 09:52:02;;;;;;;5.18;3.25;;;23.70;99.90;;;;;;6245240;23;20765;-79
2021/08/05 09:54:41;;;;;;;4.10;2.97;;;23.70;99.90;;;;;;6245411;23;20182;-81
2021/08/05 09:57:12;;;;;;;5.15;3.42;;;23.70;99.90;;;;;;6245914;23;20239;-78
2021/08/05 09:59:53;;;;;;;5.30;3.38;;;23.70;99.90;;;;;;6245523;23;20279;-81
2021/08/05 10:02:20;;;;;;;5.03;3.75;;;24.00;99.90;;;;;;6245468;23;20630;-80
2021/08/05 10:04:48;;;;;;;7.63;3.53;;;24.40;99.90;;;;;;6245520;23;20237;-78
2021/08/05 10:07:16;;;;;;;4.50;2.90;;;25.10;99.90;;;;;;6245449;23;20211;-79
2021/08/05 10:09:44;;;;;;;4.32;2.55;;;25.50;99.90;;;;;;6245014;23;20203;-83
2021/08/05 10:12:18;;;;;;;4.22;3.20;;;25.60;99.90;;;;;;6245560;23;20207;-82
2021/08/05 10:14:46;;;;;;;3.90;2.70;;;25.70;99.90;;;;;;6246755;23;20179;-81
2021/08/05 10:17:14;;;;;;;3.63;2.28;;;25.70;99.90;;;;;;6247145;23;20176;-82
2021/08/05 10:19:43;;;;;;;2.90;2.13;;;25.80;99.90;;;;;;6246739;23;20199;-80
2021/08/05 10:22:12;;;;;;;4.32;2.42;;;25.80;99.90;;;;;;6247454;23;20235;-80
2021/08/05 10:24:41;;;;;;;3.00;1.92;;;26.00;99.90;;;;;;6247196;23;20186;-81
2021/08/05 10:27:09;;;;;;;3.90;2.50;;;26.00;99.90;;;;;;6247040;23;20175;-82
2021/08/05 10:29:39;;;;;;;3.45;2.40;;;25.80;99.90;;;;;;6247059;23;20196;-80
2021/08/05 10:32:08;;;;;;;3.28;2.47;;;25.80;99.90;;;;;;6247499;23;20207;-81
2021/08/05 10:34:37;;;;;;;3.22;2.30;;;25.80;99.90;;;;;;6247452;23;20186;-78
2021/08/05 10:37:06;;;;;;;4.13;2.30;;;25.70;99.90;;;;;;6247266;23;20176;-79
2021/08/05 10:39:34;;;;;;;2.55;1.80;;;25.90;99.90;;;;;;6246757;23;20525;-80
2021/08/05 10:42:03;;;;;;;2.90;1.90;;;25.90;99.90;;;;;;6247542;23;20266;-80
2021/08/05 10:44:30;;;;;;;3.33;2.30;;;26.00;99.90;;;;;;6247004;23;20180;-80
2021/08/05 10:47:00;;;;;;;3.28;1.90;;;26.30;99.90;;;;;;6247068;23;20175;-80
2021/08/05 10:49:28;;;;;;;2.92;1.90;;;26.40;99.90;;;;;;6246812;23;20199;-82
2021/08/05 10:51:55;;;;;;;3.08;1.88;;;26.30;99.90;;;;;;6246800;23;20203;-81
2021/08/05 10:54:58;;;;;;;2.35;1.90;;;26.10;99.90;;;;;;6247195;23;20497;-78
2021/08/05 10:57:26;;;;;;;3.42;2.10;;;25.80;99.90;;;;;;6247453;23;20198;-78
2021/08/05 11:00:02;;;;;;;2.55;1.77;;;25.60;99.90;;;;;;6246980;23;20203;-79
2021/08/05 11:02:50;;;;;;;4.05;1.60;;;25.40;99.90;;;;;;6246790;23;20514;-81
2021/08/05 11:05:43;;;;;;;3.58;2.25;;;25.20;99.90;;;;;;6247190;23;20175;-78
2021/08/05 11:08:27;;;;;;;2.80;2.05;;;25.20;99.90;;;;;;6246724;23;20196;-81
2021/08/05 11:11:31;;;;;;;3.20;2.13;;;25.20;99.90;;;;;;6246243;23;20199;-80
2021/08/05 11:14:31;;;;;;;3.35;1.80;;;25.50;99.90;;;;;;6239590;23;20175;-79
2021/08/05 11:17:02;;;;;;;1.98;1.73;;;25.80;99.90;;;;;;6234836;23;20179;-80
2021/08/05 11:19:33;;;;;;;2.63;2.08;;;25.90;99.90;;;;;;6246650;23;20736;-78
2021/08/05 11:22:52;;;;;;;2.45;1.65;;;25.90;99.90;;;;;;6246793;23;20187;-78
2021/08/05 11:25:21;;;;;;;2.20;1.52;;;25.90;99.90;;;;;;6246628;23;20180;-78
2021/08/05 11:28:23;;;;;;;2.35;1.73;;;25.70;99.90;;;;;;6246417;23;20180;-76
2021/08/05 11:30:52;;;;;;;2.40;1.50;;;25.90;99.90;;;;;;6246735;23;20238;-80
2021/08/05 11:33:59;;;;;;;2.70;1.63;;;25.10;99.90;;;;;;6247177;23;20175;-76
2021/08/05 11:36:33;;;;;;;2.13;1.42;;;24.90;99.90;;;;;;6246941;23;20237;-77
2021/08/05 11:39:22;;;;;;;3.42;1.83;;;25.30;99.90;;;;;;6245996;23;20201;-78
2021/08/05 11:41:53;;;;;;;3.63;1.67;;;25.50;99.90;;;;;;6246816;23;20555;-78
2021/08/05 11:44:22;;;;;;;3.28;2.17;;;25.90;99.90;;;;;;6247188;23;20262;-78
2021/08/05 11:47:10;;;;;;;1.80;1.55;;;26.20;99.90;;;;;;6246743;23;20187;-77
2021/08/05 11:49:38;;;;;;;2.10;1.52;;;26.60;99.90;;;;;;6246901;23;20569;-78
2021/08/05 11:52:10;;;;;;;2.50;1.60;;;26.60;99.90;;;;;;6246495;23;20207;-78
2021/08/05 11:54:38;;;;;;;3.30;1.80;;;26.50;99.90;;;;;;6246500;23;20218;-77
2021/08/05 11:57:07;;;;;;;2.50;1.60;;;26.20;99.90;;;;;;6246515;23;20187;-77
2021/08/05 11:59:38;;;;;;;2.50;1.48;;;26.00;99.90;;;;;;6245910;23;20205;-77
2021/08/05 12:02:06;;;;;;;2.75;1.45;;;26.10;99.90;;;;;;6246168;23;20263;-78
2021/08/05 12:04:33;;;;;;;3.22;1.95;;;26.30;99.90;;;;;;6246831;23;20176;-78
2021/08/05 12:07:18;;;;;;;3.67;1.30;;;26.40;99.90;;;;;;6246856;23;20176;-78
2021/08/05 12:09:48;;;;;;;4.55;1.63;;;26.70;99.90;;;;;;6246223;23;20255;-77
2021/08/05 12:12:15;;;;;;;1.92;1.30;;;26.70;99.90;;;;;;6246049;23;20214;-77
2021/08/05 12:14:47;;;;;;;3.88;1.50;;;26.60;99.90;;;;;;6246104;23;20657;-77
2021/08/05 12:17:14;;;;;;;2.55;1.70;;;26.40;99.90;;;;;;6246289;23;20187;-77
2021/08/05 12:19:48;;;;;;;2.92;1.40;;;26.20;99.90;;;;;;6246468;23;20196;-77
2021/08/05 12:22:17;;;;;;;2.70;1.42;;;25.70;99.90;;;;;;6246480;23;20182;-77
2021/08/05 12:24:46;;;;;;;5.03;1.50;;;25.20;99.90;;;;;;6246142;23;20210;-76
2021/08/05 12:27:18;;;;;;;3.22;1.75;;;25.10;99.90;;;;;;6246155;23;20183;-77
2021/08/05 12:29:57;;;;;;;2.55;1.63;;;25.20;99.90;;;;;;6245091;23;20527;-77
2021/08/05 12:32:24;;;;;;;2.47;1.52;;;25.50;99.90;;;;;;6246219;23;20253;-78
2021/08/05 12:34:51;;;;;;;2.38;1.45;;;25.50;99.90;;;;;;6246486;23;20175;-78
2021/08/05 12:37:20;;;;;;;2.22;1.55;;;25.70;99.90;;;;;;6246504;23;20179;-79
2021/08/05 12:39:47;;;;;;;2.60;1.75;;;25.80;99.90;;;;;;6245745;23;20659;-76
2021/08/05 12:42:16;;;;;;;2.90;1.85;;;25.90;99.90;;;;;;6246255;23;20182;-79
2021/08/05 12:44:44;;;;;;;2.83;1.60;;;26.00;99.90;;;;;;6246195;23;20190;-79
2021/08/05 12:47:12;;;;;;;3.35;1.67;;;26.10;99.90;;;;;;6246191;23;20176;-81
2021/08/05 12:49:40;;;;;;;1.02;0.70;;;26.20;99.90;;;;;;6245216;23;20204;-79
2021/08/05 12:52:09;;;;;;;1.50;1.10;;;26.00;99.10;;;;;;6245888;23;20204;-80